sensor_id;sensor_type;location;lat;lon;timestamp;pressure;altitude;pressure_sealevel;temperature;humidity
4858;BME280;58975;51.978;8.472;2023-01-05T00:01:35;99973.03;;;10.15;100.00
4858;BME280;58975;51.978;8.472;2023-01-05T00:06:32;99975.78;;;10.14;100.00
4858;BME280;58975;51.978;8.472;2023-01-05T00:11:29;99998.66;;;10.16;100.00
4858;BME280;58975;51.978;8.472;2023-01-05T00:16:45;100006.28;;;10.10;100.00
4858;BME280;58975;51.978;8.472;2023-01-05T00:22:00;99998.00;;;10.03;100.00
4858;BME280;58975;51.978;8.472;2023-01-05T00:27:15;99995.97;;;9.95;100.00
4858;BME280;58975;51.978;8.472;2023-01-05T00:32:11;100000.16;;;9.77;100.00
4858;BME280;58975;51.978;8.472;2023-01-05T00:37:08;100009.94;;;9.56;100.00
4858;BME280;58975;51.978;8.472;2023-01-05T00:42:04;100017.75;;;9.26;100.00
4858;BME280;58975;51.978;8.472;2023-01-05T00:47:00;100017.34;;;8.76;100.00
4858;BME280;58975;51.978;8.472;2023-01-05T00:51:57;100002.72;;;8.71;100.00
4858;BME280;58975;51.978;8.472;2023-01-05T00:56:53;100004.06;;;8.54;100.00
4858;BME280;58975;51.978;8.472;2023-01-05T01:01:50;100012.47;;;8.37;100.00
4858;BME280;58975;51.978;8.472;2023-01-05T01:06:48;100020.69;;;8.56;100.00
4858;BME280;58975;51.978;8.472;2023-01-05T01:11:44;100026.72;;;8.47;100.00
4858;BME280;58975;51.978;8.472;2023-01-05T01:16:41;100040.13;;;8.68;100.00
4858;BME280;58975;51.978;8.472;2023-01-05T01:21:38;100039.75;;;8.94;100.00
4858;BME280;58975;51.978;8.472;2023-01-05T01:26:35;100022.13;;;9.05;100.00
4858;BME280;58975;51.978;8.472;2023-01-05T01:31:31;100044.84;;;9.09;100.00
4858;BME280;58975;51.978;8.472;2023-01-05T01:36:27;100036.25;;;9.16;100.00
4858;BME280;58975;51.978;8.472;2023-01-05T01:41:24;100033.22;;;9.21;100.00
4858;BME280;58975;51.978;8.472;2023-01-05T01:46:22;100036.34;;;9.26;100.00
4858;BME280;58975;51.978;8.472;2023-01-05T01:51:42;100038.03;;;9.27;100.00
4858;BME280;58975;51.978;8.472;2023-01-05T01:56:51;100058.31;;;9.39;100.00
4858;BME280;58975;51.978;8.472;2023-01-05T02:01:51;100067.50;;;9.35;100.00
4858;BME280;58975;51.978;8.472;2023-01-05T02:06:51;100075.13;;;9.28;100.00
4858;BME280;58975;51.978;8.472;2023-01-05T02:11:57;100069.44;;;9.33;100.00
4858;BME280;58975;51.978;8.472;2023-01-05T02:17:08;100075.56;;;9.33;100.00
4858;BME280;58975;51.978;8.472;2023-01-05T02:27:44;100073.53;;;9.37;100.00
4858;BME280;58975;51.978;8.472;2023-01-05T02:32:46;100064.13;;;9.33;100.00
4858;BME280;58975;51.978;8.472;2023-01-05T02:38:04;100079.34;;;9.20;100.00
4858;BME280;58975;51.978;8.472;2023-01-05T02:43:02;100065.34;;;9.07;100.00
4858;BME280;58975;51.978;8.472;2023-01-05T02:47:59;100068.38;;;9.02;100.00
4858;BME280;58975;51.978;8.472;2023-01-05T02:53:05;100071.78;;;8.93;100.00
4858;BME280;58975;51.978;8.472;2023-01-05T02:58:10;100083.94;;;8.84;100.00
4858;BME280;58975;51.978;8.472;2023-01-05T03:03:16;100074.13;;;8.63;100.00
4858;BME280;58975;51.978;8.472;2023-01-05T03:08:15;100076.44;;;8.56;100.00
4858;BME280;58975;51.978;8.472;2023-01-05T03:13:27;100083.19;;;8.49;100.00
4858;BME280;58975;51.978;8.472;2023-01-05T03:18:39;100087.06;;;8.56;100.00
4858;BME280;58975;51.978;8.472;2023-01-05T03:23:56;100089.63;;;8.69;100.00
4858;BME280;58975;51.978;8.472;2023-01-05T03:29:11;100094.06;;;8.68;100.00
4858;BME280;58975;51.978;8.472;2023-01-05T03:34:52;100102.78;;;8.70;100.00
4858;BME280;58975;51.978;8.472;2023-01-05T03:40:18;100099.88;;;8.73;100.00
4858;BME280;58975;51.978;8.472;2023-01-05T03:45:17;100109.16;;;8.68;100.00
4858;BME280;58975;51.978;8.472;2023-01-05T03:50:14;100117.47;;;8.74;100.00
4858;BME280;58975;51.978;8.472;2023-01-05T03:55:11;100114.81;;;8.74;100.00
4858;BME280;58975;51.978;8.472;2023-01-05T04:00:08;100107.09;;;8.82;100.00
4858;BME280;58975;51.978;8.472;2023-01-05T04:05:05;100122.56;;;8.88;100.00
4858;BME280;58975;51.978;8.472;2023-01-05T04:10:02;100123.69;;;8.86;100.00
4858;BME280;58975;51.978;8.472;2023-01-05T04:14:58;100135.00;;;8.88;100.00
4858;BME280;58975;51.978;8.472;2023-01-05T04:19:55;100135.84;;;8.77;100.00
4858;BME280;58975;51.978;8.472;2023-01-05T04:24:51;100134.16;;;8.76;100.00
4858;BME280;58975;51.978;8.472;2023-01-05T04:29:48;100132.94;;;8.69;100.00
4858;BME280;58975;51.978;8.472;2023-01-05T04:34:44;100132.69;;;8.72;100.00
4858;BME280;58975;51.978;8.472;2023-01-05T04:39:41;100148.63;;;8.83;100.00
4858;BME280;58975;51.978;8.472;2023-01-05T04:44:37;100151.44;;;8.82;100.00
4858;BME280;58975;51.978;8.472;2023-01-05T04:49:33;100146.31;;;8.79;100.00
4858;BME280;58975;51.978;8.472;2023-01-05T04:54:30;100155.38;;;8.76;100.00
4858;BME280;58975;51.978;8.472;2023-01-05T04:59:26;100162.41;;;8.77;100.00
4858;BME280;58975;51.978;8.472;2023-01-05T05:04:22;100168.66;;;8.76;100.00
4858;BME280;58975;51.978;8.472;2023-01-05T05:09:19;100160.59;;;8.78;100.00
4858;BME280;58975;51.978;8.472;2023-01-05T05:14:15;100174.47;;;8.81;100.00
4858;BME280;58975;51.978;8.472;2023-01-05T05:19:12;100166.03;;;8.87;100.00
4858;BME280;58975;51.978;8.472;2023-01-05T05:24:08;100175.19;;;8.83;100.00
4858;BME280;58975;51.978;8.472;2023-01-05T05:29:05;100175.31;;;8.82;100.00
4858;BME280;58975;51.978;8.472;2023-01-05T05:34:01;100182.19;;;8.84;100.00
4858;BME280;58975;51.978;8.472;2023-01-05T05:38:58;100179.53;;;8.84;100.00
4858;BME280;58975;51.978;8.472;2023-01-05T05:43:54;100184.63;;;8.87;100.00
4858;BME280;58975;51.978;8.472;2023-01-05T05:48:56;100189.31;;;8.84;100.00
4858;BME280;58975;51.978;8.472;2023-01-05T05:53:53;100194.88;;;8.81;100.00
4858;BME280;58975;51.978;8.472;2023-01-05T05:58:49;100206.53;;;8.78;100.00
4858;BME280;58975;51.978;8.472;2023-01-05T06:03:52;100204.13;;;8.75;100.00
4858;BME280;58975;51.978;8.472;2023-01-05T06:08:48;100214.88;;;8.74;100.00
4858;BME280;58975;51.978;8.472;2023-01-05T06:13:45;100221.25;;;8.71;100.00
4858;BME280;58975;51.978;8.472;2023-01-05T06:18:43;100238.38;;;8.67;100.00
4858;BME280;58975;51.978;8.472;2023-01-05T06:23:40;100248.97;;;8.56;100.00
4858;BME280;58975;51.978;8.472;2023-01-05T06:28:36;100251.00;;;8.52;100.00
4858;BME280;58975;51.978;8.472;2023-01-05T06:33:33;100254.59;;;8.51;100.00
4858;BME280;58975;51.978;8.472;2023-01-05T06:38:29;100258.34;;;8.49;100.00
4858;BME280;58975;51.978;8.472;2023-01-05T06:43:25;100277.63;;;8.51;100.00
4858;BME280;58975;51.978;8.472;2023-01-05T06:48:22;100273.94;;;8.53;100.00
4858;BME280;58975;51.978;8.472;2023-01-05T06:53:18;100280.19;;;8.52;100.00
4858;BME280;58975;51.978;8.472;2023-01-05T06:58:15;100276.69;;;8.52;100.00
4858;BME280;58975;51.978;8.472;2023-01-05T07:03:12;100290.81;;;8.52;100.00
4858;BME280;58975;51.978;8.472;2023-01-05T07:08:08;100296.00;;;8.54;100.00
4858;BME280;58975;51.978;8.472;2023-01-05T07:13:05;100309.38;;;8.52;100.00
4858;BME280;58975;51.978;8.472;2023-01-05T07:18:01;100315.66;;;8.51;100.00
4858;BME280;58975;51.978;8.472;2023-01-05T07:22:58;100326.81;;;8.44;100.00
4858;BME280;58975;51.978;8.472;2023-01-05T07:27:54;100326.94;;;8.42;100.00
4858;BME280;58975;51.978;8.472;2023-01-05T07:32:51;100338.28;;;8.44;100.00
4858;BME280;58975;51.978;8.472;2023-01-05T07:37:47;100337.09;;;8.48;100.00
4858;BME280;58975;51.978;8.472;2023-01-05T07:42:49;100351.56;;;8.44;100.00
4858;BME280;58975;51.978;8.472;2023-01-05T07:47:45;100353.81;;;8.38;100.00
4858;BME280;58975;51.978;8.472;2023-01-05T07:52:42;100369.97;;;8.35;100.00
4858;BME280;58975;51.978;8.472;2023-01-05T07:57:38;100376.63;;;8.40;100.00
4858;BME280;58975;51.978;8.472;2023-01-05T08:02:35;100375.44;;;8.44;100.00
4858;BME280;58975;51.978;8.472;2023-01-05T08:07:32;100379.91;;;8.44;100.00
4858;BME280;58975;51.978;8.472;2023-01-05T08:12:29;100392.94;;;8.47;100.00
4858;BME280;58975;51.978;8.472;2023-01-05T08:17:26;100395.50;;;8.48;100.00
4858;BME280;58975;51.978;8.472;2023-01-05T08:22:22;100399.72;;;8.51;100.00
4858;BME280;58975;51.978;8.472;2023-01-05T08:27:18;100405.22;;;8.61;100.00
4858;BME280;58975;51.978;8.472;2023-01-05T08:32:15;100409.25;;;8.66;100.00
4858;BME280;58975;51.978;8.472;2023-01-05T08:37:11;100410.94;;;8.67;100.00
4858;BME280;58975;51.978;8.472;2023-01-05T08:42:08;100419.88;;;8.66;100.00
4858;BME280;58975;51.978;8.472;2023-01-05T08:47:04;100427.72;;;8.68;100.00
4858;BME280;58975;51.978;8.472;2023-01-05T08:52:01;100429.31;;;8.70;100.00
4858;BME280;58975;51.978;8.472;2023-01-05T08:56:57;100432.47;;;8.75;100.00
4858;BME280;58975;51.978;8.472;2023-01-05T09:01:53;100437.69;;;8.77;100.00
4858;BME280;58975;51.978;8.472;2023-01-05T09:06:50;100440.19;;;8.78;100.00
4858;BME280;58975;51.978;8.472;2023-01-05T09:11:47;100450.81;;;8.78;100.00
4858;BME280;58975;51.978;8.472;2023-01-05T09:16:43;100456.03;;;8.80;100.00
4858;BME280;58975;51.978;8.472;2023-01-05T09:21:59;100458.78;;;8.78;100.00
4858;BME280;58975;51.978;8.472;2023-01-05T09:26:56;100471.88;;;8.81;100.00
4858;BME280;58975;51.978;8.472;2023-01-05T09:31:52;100471.88;;;8.81;100.00
4858;BME280;58975;51.978;8.472;2023-01-05T09:36:49;100477.38;;;8.78;100.00
4858;BME280;58975;51.978;8.472;2023-01-05T09:41:53;100486.75;;;8.71;100.00
4858;BME280;58975;51.978;8.472;2023-01-05T09:46:51;100502.06;;;8.68;100.00
4858;BME280;58975;51.978;8.472;2023-01-05T09:51:56;100504.84;;;8.66;100.00
4858;BME280;58975;51.978;8.472;2023-01-05T09:56:54;100520.97;;;8.63;100.00
4858;BME280;58975;51.978;8.472;2023-01-05T10:07:45;100531.69;;;8.62;100.00
4858;BME280;58975;51.978;8.472;2023-01-05T10:12:47;100541.88;;;8.68;100.00
4858;BME280;58975;51.978;8.472;2023-01-05T10:18:14;100546.88;;;8.72;100.00
4858;BME280;58975;51.978;8.472;2023-01-05T10:23:17;100544.75;;;8.77;100.00
4858;BME280;58975;51.978;8.472;2023-01-05T10:28:33;100541.97;;;8.79;100.00
4858;BME280;58975;51.978;8.472;2023-01-05T10:39:22;100544.44;;;8.69;100.00
4858;BME280;58975;51.978;8.472;2023-01-05T10:44:42;100555.06;;;8.57;100.00
4858;BME280;58975;51.978;8.472;2023-01-05T10:49:42;100564.63;;;8.46;100.00
4858;BME280;58975;51.978;8.472;2023-01-05T10:54:49;100564.31;;;8.38;100.00
4858;BME280;58975;51.978;8.472;2023-01-05T10:59:58;100591.38;;;8.31;100.00
4858;BME280;58975;51.978;8.472;2023-01-05T11:05:03;100596.53;;;8.32;100.00
4858;BME280;58975;51.978;8.472;2023-01-05T11:10:00;100613.31;;;8.33;100.00
4858;BME280;58975;51.978;8.472;2023-01-05T11:14:56;100624.47;;;8.38;100.00
4858;BME280;58975;51.978;8.472;2023-01-05T11:19:55;100627.88;;;8.40;100.00
4858;BME280;58975;51.978;8.472;2023-01-05T11:24:52;100623.84;;;8.47;100.00
4858;BME280;58975;51.978;8.472;2023-01-05T11:35:32;100624.28;;;8.53;100.00
4858;BME280;58975;51.978;8.472;2023-01-05T11:40:33;100622.88;;;8.48;100.00
4858;BME280;58975;51.978;8.472;2023-01-05T11:45:36;100636.69;;;8.40;100.00
4858;BME280;58975;51.978;8.472;2023-01-05T11:50:43;100618.97;;;8.41;100.00
4858;BME280;58975;51.978;8.472;2023-01-05T11:55:40;100624.06;;;8.44;100.00
4858;BME280;58975;51.978;8.472;2023-01-05T12:06:49;100631.72;;;8.48;100.00
4858;BME280;58975;51.978;8.472;2023-01-05T12:16:54;100634.59;;;8.58;100.00
4858;BME280;58975;51.978;8.472;2023-01-05T12:27:28;100634.59;;;8.58;100.00
4858;BME280;58975;51.978;8.472;2023-01-05T12:32:53;100642.44;;;8.60;100.00
4858;BME280;58975;51.978;8.472;2023-01-05T12:43:47;100640.75;;;8.46;100.00
4858;BME280;58975;51.978;8.472;2023-01-05T12:48:57;100648.69;;;8.46;100.00
4858;BME280;58975;51.978;8.472;2023-01-05T12:54:08;100653.25;;;8.44;100.00
4858;BME280;58975;51.978;8.472;2023-01-05T12:59:26;100656.31;;;8.38;100.00
4858;BME280;58975;51.978;8.472;2023-01-05T13:09:55;100671.59;;;8.47;100.00
4858;BME280;58975;51.978;8.472;2023-01-05T13:15:05;100671.44;;;8.50;100.00
4858;BME280;58975;51.978;8.472;2023-01-05T13:20:27;100680.47;;;8.60;100.00
4858;BME280;58975;51.978;8.472;2023-01-05T13:25:28;100683.00;;;8.74;100.00
4858;BME280;58975;51.978;8.472;2023-01-05T13:30:32;100683.56;;;8.79;100.00
4858;BME280;58975;51.978;8.472;2023-01-05T13:41:06;100679.19;;;8.78;100.00
4858;BME280;58975;51.978;8.472;2023-01-05T13:56:27;100684.38;;;8.67;100.00
4858;BME280;58975;51.978;8.472;2023-01-05T14:06:35;100690.44;;;8.57;100.00
4858;BME280;58975;51.978;8.472;2023-01-05T14:17:03;100688.38;;;8.47;100.00
4858;BME280;58975;51.978;8.472;2023-01-05T14:27:22;100698.47;;;8.42;100.00
4858;BME280;58975;51.978;8.472;2023-01-05T14:32:24;100712.56;;;8.43;100.00
4858;BME280;58975;51.978;8.472;2023-01-05T14:42:30;100726.06;;;8.40;100.00
4858;BME280;58975;51.978;8.472;2023-01-05T14:47:47;100726.06;;;8.40;100.00
4858;BME280;58975;51.978;8.472;2023-01-05T14:57:56;100733.50;;;8.35;100.00
4858;BME280;58975;51.978;8.472;2023-01-05T15:02:59;100742.41;;;8.34;100.00
4858;BME280;58975;51.978;8.472;2023-01-05T15:08:13;100749.59;;;8.32;100.00
4858;BME280;58975;51.978;8.472;2023-01-05T15:29:26;100744.28;;;8.32;100.00
4858;BME280;58975;51.978;8.472;2023-01-05T15:34:29;100743.25;;;8.34;100.00
4858;BME280;58975;51.978;8.472;2023-01-05T15:39:34;100731.78;;;8.34;100.00
4858;BME280;58975;51.978;8.472;2023-01-05T15:44:39;100737.09;;;8.34;100.00
4858;BME280;58975;51.978;8.472;2023-01-05T15:49:38;100734.53;;;8.32;100.00
4858;BME280;58975;51.978;8.472;2023-01-05T15:54:35;100723.28;;;8.29;100.00
4858;BME280;58975;51.978;8.472;2023-01-05T15:59:36;100729.69;;;8.25;100.00
4858;BME280;58975;51.978;8.472;2023-01-05T16:04:34;100734.66;;;8.31;100.00
4858;BME280;58975;51.978;8.472;2023-01-05T16:09:36;100734.53;;;8.32;100.00
4858;BME280;58975;51.978;8.472;2023-01-05T16:14:38;100741.84;;;8.29;100.00
4858;BME280;58975;51.978;8.472;2023-01-05T16:19:41;100734.78;;;8.28;100.00
4858;BME280;58975;51.978;8.472;2023-01-05T16:24:47;100737.66;;;8.25;100.00
4858;BME280;58975;51.978;8.472;2023-01-05T16:29:46;100738.59;;;8.24;100.00
4858;BME280;58975;51.978;8.472;2023-01-05T16:34:43;100739.38;;;8.26;100.00
4858;BME280;58975;51.978;8.472;2023-01-05T16:39:41;100742.88;;;8.26;100.00
4858;BME280;58975;51.978;8.472;2023-01-05T16:44:38;100735.94;;;8.24;100.00
4858;BME280;58975;51.978;8.472;2023-01-05T16:49:38;100733.28;;;8.24;100.00
4858;BME280;58975;51.978;8.472;2023-01-05T16:55:21;100745.81;;;8.22;100.00
4858;BME280;58975;51.978;8.472;2023-01-05T17:05:29;100751.19;;;8.07;100.00
4858;BME280;58975;51.978;8.472;2023-01-05T17:10:26;100756.22;;;7.98;100.00
4858;BME280;58975;51.978;8.472;2023-01-05T17:15:28;100762.66;;;7.94;100.00
4858;BME280;58975;51.978;8.472;2023-01-05T17:20:28;100764.47;;;7.93;100.00
4858;BME280;58975;51.978;8.472;2023-01-05T17:25:30;100769.59;;;7.82;100.00
4858;BME280;58975;51.978;8.472;2023-01-05T17:30:28;100769.03;;;7.77;100.00
4858;BME280;58975;51.978;8.472;2023-01-05T17:35:24;100756.91;;;7.73;100.00
4858;BME280;58975;51.978;8.472;2023-01-05T17:40:21;100748.94;;;7.87;100.00
4858;BME280;58975;51.978;8.472;2023-01-05T17:45:21;100747.91;;;7.90;100.00
4858;BME280;58975;51.978;8.472;2023-01-05T17:50:27;100743.09;;;7.82;100.00
4858;BME280;58975;51.978;8.472;2023-01-05T17:55:31;100747.03;;;7.89;100.00
4858;BME280;58975;51.978;8.472;2023-01-05T18:00:30;100743.03;;;7.96;100.00
4858;BME280;58975;51.978;8.472;2023-01-05T18:05:28;100734.13;;;7.97;100.00
4858;BME280;58975;51.978;8.472;2023-01-05T18:10:24;100724.25;;;8.14;100.00
4858;BME280;58975;51.978;8.472;2023-01-05T18:15:24;100719.59;;;8.17;100.00
4858;BME280;58975;51.978;8.472;2023-01-05T18:20:27;100721.28;;;8.18;100.00
4858;BME280;58975;51.978;8.472;2023-01-05T18:25:24;100728.41;;;8.18;100.00
4858;BME280;58975;51.978;8.472;2023-01-05T18:30:21;100724.44;;;8.11;100.00
4858;BME280;58975;51.978;8.472;2023-01-05T18:35:17;100718.72;;;8.17;100.00
4858;BME280;58975;51.978;8.472;2023-01-05T18:40:13;100720.44;;;8.18;100.00
4858;BME280;58975;51.978;8.472;2023-01-05T18:45:10;100726.53;;;8.05;100.00
4858;BME280;58975;51.978;8.472;2023-01-05T18:50:21;100726.34;;;8.08;100.00
4858;BME280;58975;51.978;8.472;2023-01-05T18:55:17;100729.97;;;8.07;100.00
4858;BME280;58975;51.978;8.472;2023-01-05T19:00:14;100722.75;;;8.09;100.00
4858;BME280;58975;51.978;8.472;2023-01-05T19:05:10;100719.88;;;8.13;100.00
4858;BME280;58975;51.978;8.472;2023-01-05T19:10:07;100719.19;;;8.23;100.00
4858;BME280;58975;51.978;8.472;2023-01-05T19:15:03;100721.28;;;8.18;100.00
4858;BME280;58975;51.978;8.472;2023-01-05T19:20:00;100725.31;;;8.11;100.00
4858;BME280;58975;51.978;8.472;2023-01-05T19:24:56;100713.53;;;8.15;100.00
4858;BME280;58975;51.978;8.472;2023-01-05T19:29:53;100712.69;;;8.15;100.00
4858;BME280;58975;51.978;8.472;2023-01-05T19:34:50;100715.13;;;8.18;100.00
4858;BME280;58975;51.978;8.472;2023-01-05T19:39:46;100713.63;;;8.14;100.00
4858;BME280;58975;51.978;8.472;2023-01-05T19:44:43;100708.75;;;8.07;100.00
4858;BME280;58975;51.978;8.472;2023-01-05T19:49:40;100707.78;;;8.08;100.00
4858;BME280;58975;51.978;8.472;2023-01-05T19:54:36;100705.31;;;8.05;100.00
4858;BME280;58975;51.978;8.472;2023-01-05T19:59:34;100711.97;;;7.98;100.00
4858;BME280;58975;51.978;8.472;2023-01-05T20:04:31;100696.81;;;8.00;100.00
4858;BME280;58975;51.978;8.472;2023-01-05T20:09:28;100703.38;;;7.95;100.00
4858;BME280;58975;51.978;8.472;2023-01-05T20:14:27;100690.22;;;7.93;100.00
4858;BME280;58975;51.978;8.472;2023-01-05T20:19:28;100697.94;;;8.11;100.00
4858;BME280;58975;51.978;8.472;2023-01-05T20:24:29;100689.19;;;8.08;100.00
4858;BME280;58975;51.978;8.472;2023-01-05T20:29:26;100690.69;;;8.13;100.00
4858;BME280;58975;51.978;8.472;2023-01-05T20:34:25;100689.69;;;8.01;100.00
4858;BME280;58975;51.978;8.472;2023-01-05T20:39:23;100690.13;;;7.95;100.00
4858;BME280;58975;51.978;8.472;2023-01-05T20:44:23;100686.63;;;7.94;100.00
4858;BME280;58975;51.978;8.472;2023-01-05T20:49:20;100697.97;;;7.96;100.00
4858;BME280;58975;51.978;8.472;2023-01-05T20:54:17;100701.47;;;7.97;100.00
4858;BME280;58975;51.978;8.472;2023-01-05T20:59:17;100702.91;;;7.88;100.00
4858;BME280;58975;51.978;8.472;2023-01-05T21:04:14;100700.59;;;7.96;100.00
4858;BME280;58975;51.978;8.472;2023-01-05T21:09:11;100708.97;;;7.90;100.00
4858;BME280;58975;51.978;8.472;2023-01-05T21:14:10;100697.22;;;7.94;100.00
4858;BME280;58975;51.978;8.472;2023-01-05T21:19:09;100687.56;;;7.93;100.00
4858;BME280;58975;51.978;8.472;2023-01-05T21:24:06;100708.41;;;7.85;100.00
4858;BME280;58975;51.978;8.472;2023-01-05T21:29:03;100696.09;;;7.84;100.00
4858;BME280;58975;51.978;8.472;2023-01-05T21:34:01;100694.00;;;7.89;100.00
4858;BME280;58975;51.978;8.472;2023-01-05T21:39:03;100699.31;;;7.89;100.00
4858;BME280;58975;51.978;8.472;2023-01-05T21:44:01;100688.50;;;7.92;100.00
4858;BME280;58975;51.978;8.472;2023-01-05T21:48:57;100693.00;;;8.04;100.00
4858;BME280;58975;51.978;8.472;2023-01-05T21:53:54;100680.31;;;8.09;100.00
4858;BME280;58975;51.978;8.472;2023-01-05T21:59:09;100684.53;;;7.99;100.00
4858;BME280;58975;51.978;8.472;2023-01-05T22:04:05;100674.09;;;7.96;100.00
4858;BME280;58975;51.978;8.472;2023-01-05T22:09:02;100670.84;;;8.05;100.00
4858;BME280;58975;51.978;8.472;2023-01-05T22:13:58;100665.63;;;8.04;100.00
4858;BME280;58975;51.978;8.472;2023-01-05T22:18:55;100660.31;;;8.04;100.00
4858;BME280;58975;51.978;8.472;2023-01-05T22:23:51;100651.41;;;8.05;100.00
4858;BME280;58975;51.978;8.472;2023-01-05T22:28:49;100653.03;;;8.07;100.00
4858;BME280;58975;51.978;8.472;2023-01-05T22:33:49;100655.13;;;8.02;100.00
4858;BME280;58975;51.978;8.472;2023-01-05T22:38:48;100654.72;;;8.08;100.00
4858;BME280;58975;51.978;8.472;2023-01-05T22:43:45;100655.53;;;7.96;100.00
4858;BME280;58975;51.978;8.472;2023-01-05T22:48:42;100666.47;;;7.92;100.00
4858;BME280;58975;51.978;8.472;2023-01-05T22:53:41;100656.84;;;8.03;100.00
4858;BME280;58975;51.978;8.472;2023-01-05T22:58:38;100666.91;;;7.98;100.00
4858;BME280;58975;51.978;8.472;2023-01-05T23:03:35;100676.72;;;8.11;100.00
4858;BME280;58975;51.978;8.472;2023-01-05T23:08:36;100672.25;;;8.11;100.00
4858;BME280;58975;51.978;8.472;2023-01-05T23:13:33;100679.88;;;8.16;100.00
4858;BME280;58975;51.978;8.472;2023-01-05T23:18:29;100682.94;;;8.36;100.00
4858;BME280;58975;51.978;8.472;2023-01-05T23:23:27;100694.50;;;8.35;100.00
4858;BME280;58975;51.978;8.472;2023-01-05T23:28:25;100706.31;;;8.44;100.00
4858;BME280;58975;51.978;8.472;2023-01-05T23:33:24;100701.47;;;8.50;100.00
4858;BME280;58975;51.978;8.472;2023-01-05T23:38:22;100699.97;;;8.59;100.00
4858;BME280;58975;51.978;8.472;2023-01-05T23:43:21;100718.22;;;8.51;100.00
4858;BME280;58975;51.978;8.472;2023-01-05T23:48:18;100715.56;;;8.51;100.00
4858;BME280;58975;51.978;8.472;2023-01-05T23:53:14;100710.81;;;8.56;100.00
4858;BME280;58975;51.978;8.472;2023-01-05T23:58:11;100703.78;;;8.55;100.00
